Terminal Aerodrome Forecast
Issued by NWS

Home | Current Version | Previous Version | Text Only | Print | Product List | Glossary On
Versions: 1 2 3 4 5 6 7 8 9 10 11 12 13 14 15 16 17 18 19 20 21 22 23
000
FTUS43 KIND 301100
TAFBMG
TAF
KBMG 301139Z 3012/3112 25004KT P6SM SCT120
     FM301700 27007KT P6SM BKN045
     FM310100 00000KT P6SM SCT050
     FM310800 00000KT 3SM BR SCT050
      AMD LTD TO CLD VIS AND WIND TIL 301300=

USA.gov is the U.S. government's official web portal to all federal, state and local government web resources and services.